sensor_id;sensor_type;location;lat;lon;timestamp;temperature;humidity
3071;DHT22;1546;47.208;9.038;2023-04-06T00:00:01;3.60;79.00
3071;DHT22;1546;47.208;9.038;2023-04-06T00:02:29;3.50;78.60
3071;DHT22;1546;47.208;9.038;2023-04-06T00:04:56;3.50;79.40
3071;DHT22;1546;47.208;9.038;2023-04-06T00:07:23;3.60;80.10
3071;DHT22;1546;47.208;9.038;2023-04-06T00:09:51;3.50;78.60
3071;DHT22;1546;47.208;9.038;2023-04-06T00:12:18;3.40;78.10
3071;DHT22;1546;47.208;9.038;2023-04-06T00:14:45;3.30;78.10
3071;DHT22;1546;47.208;9.038;2023-04-06T00:17:12;3.30;78.50
3071;DHT22;1546;47.208;9.038;2023-04-06T00:19:39;3.30;78.80
3071;DHT22;1546;47.208;9.038;2023-04-06T00:22:06;3.20;78.90
3071;DHT22;1546;47.208;9.038;2023-04-06T00:24:32;3.10;79.00
3071;DHT22;1546;47.208;9.038;2023-04-06T00:27:01;3.20;81.00
3071;DHT22;1546;47.208;9.038;2023-04-06T00:29:28;3.30;81.40
3071;DHT22;1546;47.208;9.038;2023-04-06T00:31:54;3.30;81.90
3071;DHT22;1546;47.208;9.038;2023-04-06T00:34:22;3.30;81.60
3071;DHT22;1546;47.208;9.038;2023-04-06T00:36:49;3.20;81.40
3071;DHT22;1546;47.208;9.038;2023-04-06T00:39:16;3.10;82.60
3071;DHT22;1546;47.208;9.038;2023-04-06T00:41:46;3.10;82.50
3071;DHT22;1546;47.208;9.038;2023-04-06T00:44:15;3.10;81.80
3071;DHT22;1546;47.208;9.038;2023-04-06T00:46:42;3.10;81.00
3071;DHT22;1546;47.208;9.038;2023-04-06T00:49:09;3.10;81.00
3071;DHT22;1546;47.208;9.038;2023-04-06T00:51:36;3.10;79.90
3071;DHT22;1546;47.208;9.038;2023-04-06T00:54:03;3.10;79.20
3071;DHT22;1546;47.208;9.038;2023-04-06T00:56:31;3.00;79.20
3071;DHT22;1546;47.208;9.038;2023-04-06T00:58:58;3.00;79.20
3071;DHT22;1546;47.208;9.038;2023-04-06T01:01:26;2.90;79.10
3071;DHT22;1546;47.208;9.038;2023-04-06T01:03:54;2.90;79.60
3071;DHT22;1546;47.208;9.038;2023-04-06T01:06:21;2.90;81.40
3071;DHT22;1546;47.208;9.038;2023-04-06T01:08:48;2.90;81.40
3071;DHT22;1546;47.208;9.038;2023-04-06T01:11:15;3.00;81.50
3071;DHT22;1546;47.208;9.038;2023-04-06T01:13:41;2.90;81.60
3071;DHT22;1546;47.208;9.038;2023-04-06T01:16:08;2.90;81.90
3071;DHT22;1546;47.208;9.038;2023-04-06T01:18:37;2.90;82.00
3071;DHT22;1546;47.208;9.038;2023-04-06T01:21:05;3.00;81.80
3071;DHT22;1546;47.208;9.038;2023-04-06T01:23:35;3.00;81.20
3071;DHT22;1546;47.208;9.038;2023-04-06T01:26:02;3.00;80.10
3071;DHT22;1546;47.208;9.038;2023-04-06T01:28:29;3.00;82.10
3071;DHT22;1546;47.208;9.038;2023-04-06T01:30:56;2.90;83.40
3071;DHT22;1546;47.208;9.038;2023-04-06T01:33:23;2.90;83.30
3071;DHT22;1546;47.208;9.038;2023-04-06T01:35:49;2.80;83.40
3071;DHT22;1546;47.208;9.038;2023-04-06T01:38:16;2.80;81.90
3071;DHT22;1546;47.208;9.038;2023-04-06T01:40:45;2.80;81.30
3071;DHT22;1546;47.208;9.038;2023-04-06T01:43:12;2.80;80.80
3071;DHT22;1546;47.208;9.038;2023-04-06T01:45:38;2.80;82.40
3071;DHT22;1546;47.208;9.038;2023-04-06T01:48:06;3.00;81.20
3071;DHT22;1546;47.208;9.038;2023-04-06T01:50:33;2.90;82.20
3071;DHT22;1546;47.208;9.038;2023-04-06T01:53:00;2.90;81.90
3071;DHT22;1546;47.208;9.038;2023-04-06T01:55:27;2.80;80.90
3071;DHT22;1546;47.208;9.038;2023-04-06T01:57:56;2.80;81.40
3071;DHT22;1546;47.208;9.038;2023-04-06T02:00:22;2.70;82.50
3071;DHT22;1546;47.208;9.038;2023-04-06T02:02:49;2.70;82.60
3071;DHT22;1546;47.208;9.038;2023-04-06T02:05:16;2.80;83.20
3071;DHT22;1546;47.208;9.038;2023-04-06T02:07:43;2.70;82.80
3071;DHT22;1546;47.208;9.038;2023-04-06T02:10:12;2.80;83.70
3071;DHT22;1546;47.208;9.038;2023-04-06T02:12:39;2.80;82.50
3071;DHT22;1546;47.208;9.038;2023-04-06T02:15:08;2.70;84.50
3071;DHT22;1546;47.208;9.038;2023-04-06T02:17:35;2.80;85.80
3071;DHT22;1546;47.208;9.038;2023-04-06T02:20:02;2.80;85.90
3071;DHT22;1546;47.208;9.038;2023-04-06T02:22:29;2.70;85.30
3071;DHT22;1546;47.208;9.038;2023-04-06T02:24:56;2.60;85.90
3071;DHT22;1546;47.208;9.038;2023-04-06T02:27:24;2.60;85.00
3071;DHT22;1546;47.208;9.038;2023-04-06T02:29:51;2.50;85.20
3071;DHT22;1546;47.208;9.038;2023-04-06T02:32:19;2.50;85.30
3071;DHT22;1546;47.208;9.038;2023-04-06T02:34:46;2.70;85.90
3071;DHT22;1546;47.208;9.038;2023-04-06T02:37:13;2.70;85.80
3071;DHT22;1546;47.208;9.038;2023-04-06T02:39:40;2.70;85.70
3071;DHT22;1546;47.208;9.038;2023-04-06T02:42:07;2.70;85.10
3071;DHT22;1546;47.208;9.038;2023-04-06T02:44:35;2.60;85.20
3071;DHT22;1546;47.208;9.038;2023-04-06T02:47:01;2.40;84.80
3071;DHT22;1546;47.208;9.038;2023-04-06T02:49:30;2.20;84.70
3071;DHT22;1546;47.208;9.038;2023-04-06T02:51:56;2.30;85.10
3071;DHT22;1546;47.208;9.038;2023-04-06T02:54:23;2.40;84.90
3071;DHT22;1546;47.208;9.038;2023-04-06T02:56:50;2.40;84.00
3071;DHT22;1546;47.208;9.038;2023-04-06T02:59:17;2.50;84.60
3071;DHT22;1546;47.208;9.038;2023-04-06T03:01:44;2.50;84.30
3071;DHT22;1546;47.208;9.038;2023-04-06T03:04:11;2.50;84.10
3071;DHT22;1546;47.208;9.038;2023-04-06T03:06:39;2.60;84.40
3071;DHT22;1546;47.208;9.038;2023-04-06T03:09:06;2.60;84.60
3071;DHT22;1546;47.208;9.038;2023-04-06T03:11:33;2.60;84.50
3071;DHT22;1546;47.208;9.038;2023-04-06T03:14:00;2.60;83.80
3071;DHT22;1546;47.208;9.038;2023-04-06T03:16:27;2.60;83.00
3071;DHT22;1546;47.208;9.038;2023-04-06T03:18:54;2.50;82.70
3071;DHT22;1546;47.208;9.038;2023-04-06T03:21:20;2.40;83.60
3071;DHT22;1546;47.208;9.038;2023-04-06T03:23:49;2.40;83.30
3071;DHT22;1546;47.208;9.038;2023-04-06T03:26:16;2.40;82.80
3071;DHT22;1546;47.208;9.038;2023-04-06T03:28:43;2.50;81.40
3071;DHT22;1546;47.208;9.038;2023-04-06T03:31:10;2.60;80.70
3071;DHT22;1546;47.208;9.038;2023-04-06T03:33:37;2.60;82.40
3071;DHT22;1546;47.208;9.038;2023-04-06T03:36:05;2.50;85.90
3071;DHT22;1546;47.208;9.038;2023-04-06T03:38:36;2.50;88.50
3071;DHT22;1546;47.208;9.038;2023-04-06T03:41:04;2.40;87.90
3071;DHT22;1546;47.208;9.038;2023-04-06T03:43:31;2.40;85.80
3071;DHT22;1546;47.208;9.038;2023-04-06T03:45:58;2.40;85.80
3071;DHT22;1546;47.208;9.038;2023-04-06T03:48:25;2.40;86.10
3071;DHT22;1546;47.208;9.038;2023-04-06T03:50:51;2.50;86.30
3071;DHT22;1546;47.208;9.038;2023-04-06T03:53:18;2.50;86.50
3071;DHT22;1546;47.208;9.038;2023-04-06T03:55:45;2.40;85.90
3071;DHT22;1546;47.208;9.038;2023-04-06T03:58:13;2.20;86.30
3071;DHT22;1546;47.208;9.038;2023-04-06T04:00:40;2.40;86.00
3071;DHT22;1546;47.208;9.038;2023-04-06T04:03:07;2.50;85.50
3071;DHT22;1546;47.208;9.038;2023-04-06T04:05:34;2.50;84.70
3071;DHT22;1546;47.208;9.038;2023-04-06T04:08:01;2.50;84.60
3071;DHT22;1546;47.208;9.038;2023-04-06T04:10:28;2.50;85.20
3071;DHT22;1546;47.208;9.038;2023-04-06T04:12:55;2.50;86.60
3071;DHT22;1546;47.208;9.038;2023-04-06T04:15:23;2.50;87.70
3071;DHT22;1546;47.208;9.038;2023-04-06T04:17:50;2.40;88.60
3071;DHT22;1546;47.208;9.038;2023-04-06T04:20:17;2.30;88.10
3071;DHT22;1546;47.208;9.038;2023-04-06T04:22:44;2.30;87.10
3071;DHT22;1546;47.208;9.038;2023-04-06T04:25:11;2.40;86.60
3071;DHT22;1546;47.208;9.038;2023-04-06T04:27:38;2.40;87.10
3071;DHT22;1546;47.208;9.038;2023-04-06T04:30:06;2.20;86.50
3071;DHT22;1546;47.208;9.038;2023-04-06T04:32:34;2.10;87.00
3071;DHT22;1546;47.208;9.038;2023-04-06T04:35:01;1.90;87.20
3071;DHT22;1546;47.208;9.038;2023-04-06T04:37:28;2.00;88.10
3071;DHT22;1546;47.208;9.038;2023-04-06T04:39:56;2.10;88.50
3071;DHT22;1546;47.208;9.038;2023-04-06T04:42:23;2.30;87.80
3071;DHT22;1546;47.208;9.038;2023-04-06T04:44:49;2.30;87.10
3071;DHT22;1546;47.208;9.038;2023-04-06T04:47:16;2.40;88.50
3071;DHT22;1546;47.208;9.038;2023-04-06T04:49:44;2.30;87.60
3071;DHT22;1546;47.208;9.038;2023-04-06T04:52:11;2.30;87.60
3071;DHT22;1546;47.208;9.038;2023-04-06T04:54:38;2.30;88.40
3071;DHT22;1546;47.208;9.038;2023-04-06T04:57:06;2.20;89.10
3071;DHT22;1546;47.208;9.038;2023-04-06T04:59:34;2.10;88.70
3071;DHT22;1546;47.208;9.038;2023-04-06T05:02:00;2.10;89.30
3071;DHT22;1546;47.208;9.038;2023-04-06T05:04:27;2.10;88.70
3071;DHT22;1546;47.208;9.038;2023-04-06T05:07:03;2.20;86.90
3071;DHT22;1546;47.208;9.038;2023-04-06T05:09:30;2.30;86.00
3071;DHT22;1546;47.208;9.038;2023-04-06T05:11:58;2.30;84.80
3071;DHT22;1546;47.208;9.038;2023-04-06T05:14:25;2.30;85.00
3071;DHT22;1546;47.208;9.038;2023-04-06T05:16:52;2.40;86.20
3071;DHT22;1546;47.208;9.038;2023-04-06T05:19:18;2.40;85.70
3071;DHT22;1546;47.208;9.038;2023-04-06T05:21:45;2.30;85.10
3071;DHT22;1546;47.208;9.038;2023-04-06T05:24:14;2.40;84.80
3071;DHT22;1546;47.208;9.038;2023-04-06T05:26:40;2.50;85.60
3071;DHT22;1546;47.208;9.038;2023-04-06T05:29:07;2.50;86.50
3071;DHT22;1546;47.208;9.038;2023-04-06T05:31:35;2.60;86.40
3071;DHT22;1546;47.208;9.038;2023-04-06T05:34:01;2.50;87.30
3071;DHT22;1546;47.208;9.038;2023-04-06T05:36:28;2.40;87.80
3071;DHT22;1546;47.208;9.038;2023-04-06T05:38:55;2.50;86.20
3071;DHT22;1546;47.208;9.038;2023-04-06T05:41:24;2.60;84.40
3071;DHT22;1546;47.208;9.038;2023-04-06T05:43:51;2.70;84.10
3071;DHT22;1546;47.208;9.038;2023-04-06T05:46:18;2.70;85.50
3071;DHT22;1546;47.208;9.038;2023-04-06T05:48:46;2.80;85.20
3071;DHT22;1546;47.208;9.038;2023-04-06T05:51:13;2.80;83.30
3071;DHT22;1546;47.208;9.038;2023-04-06T05:53:39;2.90;85.50
3071;DHT22;1546;47.208;9.038;2023-04-06T05:56:06;2.90;87.50
3071;DHT22;1546;47.208;9.038;2023-04-06T05:58:35;2.90;88.20
3071;DHT22;1546;47.208;9.038;2023-04-06T06:01:02;2.90;88.60
3071;DHT22;1546;47.208;9.038;2023-04-06T06:03:30;3.00;89.20
3071;DHT22;1546;47.208;9.038;2023-04-06T06:06:00;3.10;90.10
3071;DHT22;1546;47.208;9.038;2023-04-06T06:08:27;3.00;90.00
3071;DHT22;1546;47.208;9.038;2023-04-06T06:10:55;3.00;89.70
3071;DHT22;1546;47.208;9.038;2023-04-06T06:13:22;2.90;89.70
3071;DHT22;1546;47.208;9.038;2023-04-06T06:15:50;2.80;89.20
3071;DHT22;1546;47.208;9.038;2023-04-06T06:18:17;2.90;88.80
3071;DHT22;1546;47.208;9.038;2023-04-06T06:20:44;3.10;87.80
3071;DHT22;1546;47.208;9.038;2023-04-06T06:23:11;3.10;86.30
3071;DHT22;1546;47.208;9.038;2023-04-06T06:25:38;3.20;86.70
3071;DHT22;1546;47.208;9.038;2023-04-06T06:28:05;3.40;86.80
3071;DHT22;1546;47.208;9.038;2023-04-06T06:30:32;3.50;85.30
3071;DHT22;1546;47.208;9.038;2023-04-06T06:33:00;3.70;85.00
3071;DHT22;1546;47.208;9.038;2023-04-06T06:35:28;3.90;84.60
3071;DHT22;1546;47.208;9.038;2023-04-06T06:37:55;4.10;84.00
3071;DHT22;1546;47.208;9.038;2023-04-06T06:40:22;4.30;84.30
3071;DHT22;1546;47.208;9.038;2023-04-06T06:42:51;4.40;83.10
3071;DHT22;1546;47.208;9.038;2023-04-06T06:45:18;4.50;82.10
3071;DHT22;1546;47.208;9.038;2023-04-06T06:47:45;4.60;81.70
3071;DHT22;1546;47.208;9.038;2023-04-06T06:50:14;4.70;80.30
3071;DHT22;1546;47.208;9.038;2023-04-06T06:52:41;4.70;79.50
3071;DHT22;1546;47.208;9.038;2023-04-06T06:55:09;5.00;80.20
3071;DHT22;1546;47.208;9.038;2023-04-06T06:57:36;5.10;79.50
3071;DHT22;1546;47.208;9.038;2023-04-06T07:00:04;5.10;78.40
3071;DHT22;1546;47.208;9.038;2023-04-06T07:02:34;5.20;79.10
3071;DHT22;1546;47.208;9.038;2023-04-06T07:05:01;5.30;79.00
3071;DHT22;1546;47.208;9.038;2023-04-06T07:07:30;5.40;78.50
3071;DHT22;1546;47.208;9.038;2023-04-06T07:09:56;5.70;78.40
3071;DHT22;1546;47.208;9.038;2023-04-06T07:12:23;5.80;78.50
3071;DHT22;1546;47.208;9.038;2023-04-06T07:14:50;5.90;78.20
3071;DHT22;1546;47.208;9.038;2023-04-06T07:17:17;5.90;78.00
3071;DHT22;1546;47.208;9.038;2023-04-06T07:19:44;6.00;78.90
3071;DHT22;1546;47.208;9.038;2023-04-06T07:22:11;5.90;79.60
3071;DHT22;1546;47.208;9.038;2023-04-06T07:24:39;6.00;80.40
3071;DHT22;1546;47.208;9.038;2023-04-06T07:27:06;6.10;79.80
3071;DHT22;1546;47.208;9.038;2023-04-06T07:29:33;6.30;78.30
3071;DHT22;1546;47.208;9.038;2023-04-06T07:32:00;6.40;76.80
3071;DHT22;1546;47.208;9.038;2023-04-06T07:34:27;6.50;75.20
3071;DHT22;1546;47.208;9.038;2023-04-06T07:36:54;6.60;74.50
3071;DHT22;1546;47.208;9.038;2023-04-06T07:39:22;6.60;74.00
3071;DHT22;1546;47.208;9.038;2023-04-06T07:41:50;6.60;74.40
3071;DHT22;1546;47.208;9.038;2023-04-06T07:44:17;6.60;73.70
3071;DHT22;1546;47.208;9.038;2023-04-06T07:46:44;6.80;73.70
3071;DHT22;1546;47.208;9.038;2023-04-06T07:49:11;6.90;73.10
3071;DHT22;1546;47.208;9.038;2023-04-06T07:51:39;7.10;73.50
3071;DHT22;1546;47.208;9.038;2023-04-06T07:54:06;7.20;74.40
3071;DHT22;1546;47.208;9.038;2023-04-06T07:56:33;7.40;73.00
3071;DHT22;1546;47.208;9.038;2023-04-06T07:59:01;7.40;71.00
3071;DHT22;1546;47.208;9.038;2023-04-06T08:01:28;7.40;70.90
3071;DHT22;1546;47.208;9.038;2023-04-06T08:03:56;7.60;72.20
3071;DHT22;1546;47.208;9.038;2023-04-06T08:06:23;7.80;71.80
3071;DHT22;1546;47.208;9.038;2023-04-06T08:08:50;7.80;70.90
3071;DHT22;1546;47.208;9.038;2023-04-06T08:11:17;7.80;69.60
3071;DHT22;1546;47.208;9.038;2023-04-06T08:13:44;7.90;71.00
3071;DHT22;1546;47.208;9.038;2023-04-06T08:16:12;7.90;72.00
3071;DHT22;1546;47.208;9.038;2023-04-06T08:18:39;7.90;72.60
3071;DHT22;1546;47.208;9.038;2023-04-06T08:21:06;7.90;75.30
3071;DHT22;1546;47.208;9.038;2023-04-06T08:23:33;7.80;75.30
3071;DHT22;1546;47.208;9.038;2023-04-06T08:26:00;7.90;75.30
3071;DHT22;1546;47.208;9.038;2023-04-06T08:28:27;8.00;74.70
3071;DHT22;1546;47.208;9.038;2023-04-06T08:30:54;8.20;75.60
3071;DHT22;1546;47.208;9.038;2023-04-06T08:33:22;8.30;73.50
3071;DHT22;1546;47.208;9.038;2023-04-06T08:35:49;8.50;72.70
3071;DHT22;1546;47.208;9.038;2023-04-06T08:38:16;8.70;72.40
3071;DHT22;1546;47.208;9.038;2023-04-06T08:40:43;8.80;72.90
3071;DHT22;1546;47.208;9.038;2023-04-06T08:43:14;8.70;71.60
3071;DHT22;1546;47.208;9.038;2023-04-06T08:45:41;8.70;76.80
3071;DHT22;1546;47.208;9.038;2023-04-06T08:48:09;9.10;69.90
3071;DHT22;1546;47.208;9.038;2023-04-06T08:50:38;9.10;69.30
3071;DHT22;1546;47.208;9.038;2023-04-06T08:53:06;9.10;70.80
3071;DHT22;1546;47.208;9.038;2023-04-06T08:55:35;9.20;69.40
3071;DHT22;1546;47.208;9.038;2023-04-06T08:58:03;9.30;69.50
3071;DHT22;1546;47.208;9.038;2023-04-06T09:00:33;9.40;68.90
3071;DHT22;1546;47.208;9.038;2023-04-06T09:03:03;9.40;67.40
3071;DHT22;1546;47.208;9.038;2023-04-06T09:05:31;9.40;66.80
3071;DHT22;1546;47.208;9.038;2023-04-06T09:08:00;9.50;67.30
3071;DHT22;1546;47.208;9.038;2023-04-06T09:10:28;9.80;67.20
3071;DHT22;1546;47.208;9.038;2023-04-06T09:13:03;9.90;66.30
3071;DHT22;1546;47.208;9.038;2023-04-06T09:15:29;10.00;65.30
3071;DHT22;1546;47.208;9.038;2023-04-06T09:17:57;10.10;68.50
3071;DHT22;1546;47.208;9.038;2023-04-06T09:20:24;10.20;66.00
3071;DHT22;1546;47.208;9.038;2023-04-06T09:22:53;10.30;64.00
3071;DHT22;1546;47.208;9.038;2023-04-06T09:25:23;10.40;63.60
3071;DHT22;1546;47.208;9.038;2023-04-06T09:27:58;10.40;63.20
3071;DHT22;1546;47.208;9.038;2023-04-06T09:30:25;10.50;63.00
3071;DHT22;1546;47.208;9.038;2023-04-06T09:32:53;10.50;61.30
3071;DHT22;1546;47.208;9.038;2023-04-06T09:35:21;10.60;63.30
3071;DHT22;1546;47.208;9.038;2023-04-06T09:37:50;10.70;60.60
3071;DHT22;1546;47.208;9.038;2023-04-06T09:40:17;10.70;60.50
3071;DHT22;1546;47.208;9.038;2023-04-06T09:42:47;10.70;60.10
3071;DHT22;1546;47.208;9.038;2023-04-06T09:45:15;10.80;60.60
3071;DHT22;1546;47.208;9.038;2023-04-06T09:47:43;11.00;62.20
3071;DHT22;1546;47.208;9.038;2023-04-06T09:50:12;11.20;58.50
3071;DHT22;1546;47.208;9.038;2023-04-06T09:52:43;11.30;58.50
3071;DHT22;1546;47.208;9.038;2023-04-06T09:55:28;11.40;57.50
3071;DHT22;1546;47.208;9.038;2023-04-06T09:58:04;11.60;58.30
3071;DHT22;1546;47.208;9.038;2023-04-06T10:00:34;11.50;57.00
3071;DHT22;1546;47.208;9.038;2023-04-06T10:03:11;11.60;58.10
3071;DHT22;1546;47.208;9.038;2023-04-06T10:05:46;11.70;56.60
3071;DHT22;1546;47.208;9.038;2023-04-06T10:08:17;11.80;56.50
3071;DHT22;1546;47.208;9.038;2023-04-06T10:10:46;12.00;56.90
3071;DHT22;1546;47.208;9.038;2023-04-06T10:13:15;12.00;55.20
3071;DHT22;1546;47.208;9.038;2023-04-06T10:15:43;12.20;55.20
3071;DHT22;1546;47.208;9.038;2023-04-06T10:18:10;12.30;54.90
3071;DHT22;1546;47.208;9.038;2023-04-06T10:20:41;12.30;54.00
3071;DHT22;1546;47.208;9.038;2023-04-06T10:23:12;12.20;53.70
3071;DHT22;1546;47.208;9.038;2023-04-06T10:25:52;12.40;54.40
3071;DHT22;1546;47.208;9.038;2023-04-06T10:28:20;12.50;53.80
3071;DHT22;1546;47.208;9.038;2023-04-06T10:30:47;12.60;55.00
3071;DHT22;1546;47.208;9.038;2023-04-06T10:33:14;12.80;54.20
3071;DHT22;1546;47.208;9.038;2023-04-06T10:35:41;12.50;53.00
3071;DHT22;1546;47.208;9.038;2023-04-06T10:38:08;12.30;53.40
3071;DHT22;1546;47.208;9.038;2023-04-06T10:40:38;12.50;54.90
3071;DHT22;1546;47.208;9.038;2023-04-06T10:43:09;13.10;56.50
3071;DHT22;1546;47.208;9.038;2023-04-06T10:45:38;14.10;55.40
3071;DHT22;1546;47.208;9.038;2023-04-06T10:48:14;14.30;51.40
3071;DHT22;1546;47.208;9.038;2023-04-06T10:50:42;15.40;52.10
3071;DHT22;1546;47.208;9.038;2023-04-06T10:53:10;16.60;50.50
3071;DHT22;1546;47.208;9.038;2023-04-06T10:55:39;17.00;48.30
3071;DHT22;1546;47.208;9.038;2023-04-06T10:58:06;17.90;50.00
3071;DHT22;1546;47.208;9.038;2023-04-06T11:00:34;18.10;45.70
3071;DHT22;1546;47.208;9.038;2023-04-06T11:03:02;17.70;47.90
3071;DHT22;1546;47.208;9.038;2023-04-06T11:05:29;16.80;47.70
3071;DHT22;1546;47.208;9.038;2023-04-06T11:07:56;16.80;48.50
3071;DHT22;1546;47.208;9.038;2023-04-06T11:10:23;16.80;48.60
3071;DHT22;1546;47.208;9.038;2023-04-06T11:12:54;17.30;47.60
3071;DHT22;1546;47.208;9.038;2023-04-06T11:15:21;18.10;47.80
3071;DHT22;1546;47.208;9.038;2023-04-06T11:17:48;18.20;46.20
3071;DHT22;1546;47.208;9.038;2023-04-06T11:20:17;18.70;45.90
3071;DHT22;1546;47.208;9.038;2023-04-06T11:22:49;19.40;54.30
3071;DHT22;1546;47.208;9.038;2023-04-06T11:25:16;19.30;53.60
3071;DHT22;1546;47.208;9.038;2023-04-06T11:27:45;19.30;51.00
3071;DHT22;1546;47.208;9.038;2023-04-06T11:30:13;19.20;50.50
3071;DHT22;1546;47.208;9.038;2023-04-06T11:32:41;18.50;52.30
3071;DHT22;1546;47.208;9.038;2023-04-06T11:35:11;18.50;52.50
3071;DHT22;1546;47.208;9.038;2023-04-06T11:37:43;18.90;51.10
3071;DHT22;1546;47.208;9.038;2023-04-06T11:40:10;18.30;42.00
3071;DHT22;1546;47.208;9.038;2023-04-06T11:42:37;17.70;53.70
3071;DHT22;1546;47.208;9.038;2023-04-06T11:45:07;17.60;55.10
3071;DHT22;1546;47.208;9.038;2023-04-06T11:47:36;17.30;48.10
3071;DHT22;1546;47.208;9.038;2023-04-06T11:50:06;17.10;50.00
3071;DHT22;1546;47.208;9.038;2023-04-06T11:52:34;17.00;41.70
3071;DHT22;1546;47.208;9.038;2023-04-06T11:55:10;17.70;50.40
3071;DHT22;1546;47.208;9.038;2023-04-06T11:57:37;18.20;49.10
3071;DHT22;1546;47.208;9.038;2023-04-06T12:00:06;17.90;41.40
3071;DHT22;1546;47.208;9.038;2023-04-06T12:02:33;17.90;51.10
3071;DHT22;1546;47.208;9.038;2023-04-06T12:05:01;18.00;53.50
3071;DHT22;1546;47.208;9.038;2023-04-06T12:07:28;18.60;53.30
3071;DHT22;1546;47.208;9.038;2023-04-06T12:09:55;19.60;50.10
3071;DHT22;1546;47.208;9.038;2023-04-06T12:12:24;20.10;50.60
3071;DHT22;1546;47.208;9.038;2023-04-06T12:14:51;20.40;47.00
3071;DHT22;1546;47.208;9.038;2023-04-06T12:17:18;20.40;38.50
3071;DHT22;1546;47.208;9.038;2023-04-06T12:19:45;20.40;51.20
3071;DHT22;1546;47.208;9.038;2023-04-06T12:22:12;20.50;37.10
3071;DHT22;1546;47.208;9.038;2023-04-06T12:24:39;19.80;36.80
3071;DHT22;1546;47.208;9.038;2023-04-06T12:27:06;19.80;56.50
3071;DHT22;1546;47.208;9.038;2023-04-06T12:29:35;19.60;54.80
3071;DHT22;1546;47.208;9.038;2023-04-06T12:32:02;19.70;56.30
3071;DHT22;1546;47.208;9.038;2023-04-06T12:34:29;19.50;56.90
3071;DHT22;1546;47.208;9.038;2023-04-06T12:36:56;19.70;49.70
3071;DHT22;1546;47.208;9.038;2023-04-06T12:39:23;19.40;58.70
3071;DHT22;1546;47.208;9.038;2023-04-06T12:41:50;20.00;45.00
3071;DHT22;1546;47.208;9.038;2023-04-06T12:44:17;19.70;43.30
3071;DHT22;1546;47.208;9.038;2023-04-06T12:46:45;19.40;40.40
3071;DHT22;1546;47.208;9.038;2023-04-06T12:49:12;19.80;57.50
3071;DHT22;1546;47.208;9.038;2023-04-06T12:51:42;19.80;60.00
3071;DHT22;1546;47.208;9.038;2023-04-06T12:54:08;19.80;58.80
3071;DHT22;1546;47.208;9.038;2023-04-06T12:56:36;19.60;60.60
3071;DHT22;1546;47.208;9.038;2023-04-06T12:59:03;19.40;58.40
3071;DHT22;1546;47.208;9.038;2023-04-06T13:01:30;19.40;59.70
3071;DHT22;1546;47.208;9.038;2023-04-06T13:03:59;19.70;58.70
3071;DHT22;1546;47.208;9.038;2023-04-06T13:06:27;19.80;43.00
3071;DHT22;1546;47.208;9.038;2023-04-06T13:08:54;20.20;58.50
3071;DHT22;1546;47.208;9.038;2023-04-06T13:11:21;19.60;59.10
3071;DHT22;1546;47.208;9.038;2023-04-06T13:13:49;19.30;60.80
3071;DHT22;1546;47.208;9.038;2023-04-06T13:16:16;19.00;59.70
3071;DHT22;1546;47.208;9.038;2023-04-06T13:18:43;18.80;60.90
3071;DHT22;1546;47.208;9.038;2023-04-06T13:21:13;18.90;62.20
3071;DHT22;1546;47.208;9.038;2023-04-06T13:23:41;19.60;62.00
3071;DHT22;1546;47.208;9.038;2023-04-06T13:26:08;19.70;60.00
3071;DHT22;1546;47.208;9.038;2023-04-06T13:28:36;19.30;60.40
3071;DHT22;1546;47.208;9.038;2023-04-06T13:31:04;18.60;61.10
3071;DHT22;1546;47.208;9.038;2023-04-06T13:33:32;18.40;60.70
3071;DHT22;1546;47.208;9.038;2023-04-06T13:35:59;18.60;63.00
3071;DHT22;1546;47.208;9.038;2023-04-06T13:38:28;19.70;63.70
3071;DHT22;1546;47.208;9.038;2023-04-06T13:40:54;19.70;49.40
3071;DHT22;1546;47.208;9.038;2023-04-06T13:43:21;19.90;60.40
3071;DHT22;1546;47.208;9.038;2023-04-06T13:45:52;19.80;60.30
3071;DHT22;1546;47.208;9.038;2023-04-06T13:48:20;19.80;62.20
3071;DHT22;1546;47.208;9.038;2023-04-06T13:50:47;20.10;63.60
3071;DHT22;1546;47.208;9.038;2023-04-06T13:53:14;20.10;62.60
3071;DHT22;1546;47.208;9.038;2023-04-06T13:55:42;19.80;62.70
3071;DHT22;1546;47.208;9.038;2023-04-06T13:58:09;20.40;63.70
3071;DHT22;1546;47.208;9.038;2023-04-06T14:00:36;20.80;64.30
3071;DHT22;1546;47.208;9.038;2023-04-06T14:03:03;20.90;63.70
3071;DHT22;1546;47.208;9.038;2023-04-06T14:05:31;20.10;64.40
3071;DHT22;1546;47.208;9.038;2023-04-06T14:07:58;19.80;65.60
3071;DHT22;1546;47.208;9.038;2023-04-06T14:10:25;20.10;65.90
3071;DHT22;1546;47.208;9.038;2023-04-06T14:12:54;19.70;63.10
3071;DHT22;1546;47.208;9.038;2023-04-06T14:15:21;19.60;63.80
3071;DHT22;1546;47.208;9.038;2023-04-06T14:17:49;19.20;65.00
3071;DHT22;1546;47.208;9.038;2023-04-06T14:20:16;18.90;64.80
3071;DHT22;1546;47.208;9.038;2023-04-06T14:22:43;19.10;65.90
3071;DHT22;1546;47.208;9.038;2023-04-06T14:25:10;19.00;63.80
3071;DHT22;1546;47.208;9.038;2023-04-06T14:27:38;18.60;39.20
3071;DHT22;1546;47.208;9.038;2023-04-06T14:32:34;18.00;69.40
3071;DHT22;1546;47.208;9.038;2023-04-06T14:35:01;18.60;45.30
3071;DHT22;1546;47.208;9.038;2023-04-06T14:37:28;19.30;38.90
3071;DHT22;1546;47.208;9.038;2023-04-06T14:39:55;19.50;69.80
3071;DHT22;1546;47.208;9.038;2023-04-06T14:42:22;20.10;70.20
3071;DHT22;1546;47.208;9.038;2023-04-06T14:44:49;20.10;67.30
3071;DHT22;1546;47.208;9.038;2023-04-06T14:47:17;20.60;68.40
3071;DHT22;1546;47.208;9.038;2023-04-06T14:49:46;20.30;66.60
3071;DHT22;1546;47.208;9.038;2023-04-06T14:52:12;19.80;66.40
3071;DHT22;1546;47.208;9.038;2023-04-06T14:54:40;19.90;66.70
3071;DHT22;1546;47.208;9.038;2023-04-06T14:57:06;20.60;67.10
3071;DHT22;1546;47.208;9.038;2023-04-06T14:59:33;20.60;64.60
3071;DHT22;1546;47.208;9.038;2023-04-06T15:02:01;19.90;66.10
3071;DHT22;1546;47.208;9.038;2023-04-06T15:06:57;18.40;67.00
3071;DHT22;1546;47.208;9.038;2023-04-06T15:09:24;18.10;65.80
3071;DHT22;1546;47.208;9.038;2023-04-06T15:11:51;18.50;67.00
3071;DHT22;1546;47.208;9.038;2023-04-06T15:14:18;18.60;64.80
3071;DHT22;1546;47.208;9.038;2023-04-06T15:16:44;19.10;66.60
3071;DHT22;1546;47.208;9.038;2023-04-06T15:19:11;19.00;65.80
3071;DHT22;1546;47.208;9.038;2023-04-06T15:21:39;19.00;55.30
3071;DHT22;1546;47.208;9.038;2023-04-06T15:24:06;19.30;50.00
3071;DHT22;1546;47.208;9.038;2023-04-06T15:26:35;18.80;48.10
3071;DHT22;1546;47.208;9.038;2023-04-06T15:29:02;18.00;48.70
3071;DHT22;1546;47.208;9.038;2023-04-06T15:31:29;17.70;49.60
3071;DHT22;1546;47.208;9.038;2023-04-06T15:33:56;17.80;52.80
3071;DHT22;1546;47.208;9.038;2023-04-06T15:36:24;17.70;50.90
3071;DHT22;1546;47.208;9.038;2023-04-06T15:38:53;17.40;51.60
3071;DHT22;1546;47.208;9.038;2023-04-06T15:41:20;17.10;53.60
3071;DHT22;1546;47.208;9.038;2023-04-06T15:43:48;17.00;52.60
3071;DHT22;1546;47.208;9.038;2023-04-06T15:46:15;16.70;52.80
3071;DHT22;1546;47.208;9.038;2023-04-06T15:48:42;16.50;52.40
3071;DHT22;1546;47.208;9.038;2023-04-06T15:51:09;16.10;53.00
3071;DHT22;1546;47.208;9.038;2023-04-06T15:53:37;16.10;54.80
3071;DHT22;1546;47.208;9.038;2023-04-06T15:56:06;16.10;54.00
3071;DHT22;1546;47.208;9.038;2023-04-06T15:58:34;16.10;54.10
3071;DHT22;1546;47.208;9.038;2023-04-06T16:01:10;16.10;53.90
3071;DHT22;1546;47.208;9.038;2023-04-06T16:03:37;16.10;54.70
3071;DHT22;1546;47.208;9.038;2023-04-06T16:06:05;15.80;54.60
3071;DHT22;1546;47.208;9.038;2023-04-06T16:08:32;15.70;54.40
3071;DHT22;1546;47.208;9.038;2023-04-06T16:10:59;15.60;54.90
3071;DHT22;1546;47.208;9.038;2023-04-06T16:13:27;15.50;54.10
3071;DHT22;1546;47.208;9.038;2023-04-06T16:15:54;15.40;54.40
3071;DHT22;1546;47.208;9.038;2023-04-06T16:18:21;15.30;54.60